createdAt,value
2018-10-09T00:00:09.688Z,12.63
2018-10-09T00:02:36.942Z,10.72
2018-10-09T00:05:05.344Z,12.07
2018-10-09T00:07:32.682Z,11.65
2018-10-09T00:10:00.313Z,12.75
2018-10-09T00:12:27.682Z,13.85
2018-10-09T00:14:54.941Z,12.58
2018-10-09T00:17:22.223Z,10.90
2018-10-09T00:19:49.517Z,11.55
2018-10-09T00:22:16.793Z,12.95
2018-10-09T00:24:44.089Z,13.65
2018-10-09T00:27:11.341Z,11.83
2018-10-09T00:29:38.892Z,11.70
2018-10-09T00:32:06.353Z,12.35
2018-10-09T00:34:33.951Z,12.20
2018-10-09T00:37:01.270Z,12.30
2018-10-09T00:39:28.824Z,13.40
2018-10-09T00:41:56.325Z,11.45
2018-10-09T00:44:24.150Z,11.93
2018-10-09T00:46:51.926Z,12.23
2018-10-09T00:49:19.208Z,11.35
2018-10-09T00:51:46.531Z,11.38
2018-10-09T00:54:13.837Z,15.78
2018-10-09T00:56:41.269Z,11.28
2018-10-09T00:59:08.543Z,13.25
2018-10-09T01:01:35.883Z,11.53
2018-10-09T01:04:03.177Z,10.82
2018-10-09T01:06:30.459Z,11.22
2018-10-09T01:08:57.775Z,10.38
2018-10-09T01:11:25.054Z,11.00
2018-10-09T01:13:52.793Z,11.60
2018-10-09T01:16:20.152Z,11.10
2018-10-09T01:18:47.433Z,10.88
2018-10-09T01:21:14.741Z,11.93
2018-10-09T01:23:42.096Z,11.85
2018-10-09T01:26:09.594Z,10.58
2018-10-09T01:28:37.178Z,11.57
2018-10-09T01:31:04.495Z,10.50
2018-10-09T01:33:31.834Z,10.30
2018-10-09T01:35:59.209Z,10.25
2018-10-09T01:38:26.547Z,11.57
2018-10-09T01:40:54.165Z,14.25
2018-10-09T01:43:21.800Z,13.35
2018-10-09T01:45:49.148Z,12.03
2018-10-09T01:48:16.585Z,10.03
2018-10-09T01:50:43.861Z,9.25
2018-10-09T01:53:11.198Z,10.60
2018-10-09T01:55:38.506Z,9.78
2018-10-09T01:58:05.893Z,12.20
2018-10-09T02:00:33.236Z,10.13
2018-10-09T02:03:00.536Z,10.05
2018-10-09T02:05:27.833Z,11.28
2018-10-09T02:07:55.277Z,10.38
2018-10-09T02:10:22.618Z,10.32
2018-10-09T02:12:50.114Z,10.08
2018-10-09T02:15:17.688Z,10.43
2018-10-09T02:17:44.997Z,10.40
2018-10-09T02:20:12.543Z,10.20
2018-10-09T02:22:40.568Z,10.15
2018-10-09T02:25:08.425Z,15.70
2018-10-09T02:27:35.807Z,9.20
2018-10-09T02:30:03.129Z,9.95
2018-10-09T02:32:31.202Z,10.35
2018-10-09T02:34:58.762Z,10.60
2018-10-09T02:37:26.316Z,9.80
2018-10-09T02:39:53.593Z,9.20
2018-10-09T02:42:20.945Z,11.03
2018-10-09T02:44:48.567Z,10.10
2018-10-09T02:47:15.934Z,10.40
2018-10-09T02:49:43.213Z,11.60
2018-10-09T02:52:10.814Z,10.53
2018-10-09T02:54:38.165Z,11.57
2018-10-09T02:57:05.549Z,10.30
2018-10-09T02:59:32.903Z,10.53
2018-10-09T03:02:00.226Z,10.53
2018-10-09T03:04:27.520Z,10.70
2018-10-09T03:06:54.864Z,11.80
2018-10-09T03:09:22.668Z,11.40
2018-10-09T03:11:50.569Z,11.48
2018-10-09T03:14:17.916Z,12.60
2018-10-09T03:16:45.553Z,12.35
2018-10-09T03:19:13.112Z,12.90
2018-10-09T03:21:40.468Z,11.80
2018-10-09T03:24:07.877Z,11.80
2018-10-09T03:26:35.334Z,11.83
2018-10-09T03:29:02.679Z,11.43
2018-10-09T03:31:32.521Z,15.80
2018-10-09T03:34:00.470Z,12.40
2018-10-09T03:36:27.781Z,14.45
2018-10-09T03:38:55.159Z,14.58
2018-10-09T03:41:22.723Z,12.60
2018-10-09T03:43:50.286Z,13.93
2018-10-09T03:46:17.570Z,12.85
2018-10-09T03:48:44.923Z,14.85
2018-10-09T03:51:12.496Z,14.13
2018-10-09T03:53:39.800Z,13.35
2018-10-09T03:56:07.109Z,13.60
2018-10-09T03:58:34.392Z,13.80
2018-10-09T04:01:02.109Z,14.15
2018-10-09T04:03:29.458Z,14.65
2018-10-09T04:05:56.737Z,13.58
2018-10-09T04:08:24.337Z,13.15
2018-10-09T04:10:51.657Z,14.28
2018-10-09T04:13:19.217Z,15.43
2018-10-09T04:15:47.154Z,14.93
2018-10-09T04:18:14.501Z,18.37
2018-10-09T04:20:42.058Z,14.58
2018-10-09T04:23:09.617Z,13.58
2018-10-09T04:25:37.456Z,14.07
2018-10-09T04:28:04.860Z,14.05
2018-10-09T04:30:32.178Z,14.43
2018-10-09T04:32:59.549Z,13.90
2018-10-09T04:35:26.973Z,14.35
2018-10-09T04:37:54.464Z,15.80
2018-10-09T04:40:22.009Z,16.45
2018-10-09T04:42:49.331Z,14.47
2018-10-09T04:45:17.612Z,15.25
2018-10-09T04:47:44.895Z,13.32
2018-10-09T04:50:12.286Z,15.72
2018-10-09T04:52:39.844Z,13.05
2018-10-09T04:55:07.277Z,17.65
2018-10-09T04:57:34.565Z,16.40
2018-10-09T05:00:02.178Z,15.15
2018-10-09T05:02:29.509Z,13.83
2018-10-09T05:04:56.799Z,14.30
2018-10-09T05:07:24.416Z,19.57
2018-10-09T05:09:51.751Z,14.60
2018-10-09T05:12:19.084Z,14.85
2018-10-09T05:14:46.720Z,19.98
2018-10-09T05:17:14.018Z,18.12
2018-10-09T05:19:41.325Z,16.17
2018-10-09T05:22:08.943Z,17.32
2018-10-09T05:24:36.268Z,16.45
2018-10-09T05:27:03.852Z,18.30
2018-10-09T05:29:31.398Z,16.17
2018-10-09T05:31:58.777Z,17.75
2018-10-09T05:34:26.437Z,17.90
2018-10-09T05:36:53.963Z,22.60
2018-10-09T05:39:21.530Z,17.57
2018-10-09T05:41:49.089Z,17.25
2018-10-09T05:44:16.494Z,17.27
2018-10-09T05:46:43.833Z,17.75
2018-10-09T05:49:11.242Z,19.27
2018-10-09T05:51:38.553Z,23.07
2018-10-09T05:54:05.923Z,16.62
2018-10-09T05:56:33.225Z,18.65
2018-10-09T05:59:00.607Z,18.05
2018-10-09T06:01:28.210Z,16.40
2018-10-09T06:03:55.957Z,15.80
2018-10-09T06:06:23.251Z,17.65
2018-10-09T06:08:50.562Z,18.23
2018-10-09T06:11:17.894Z,18.95
2018-10-09T06:13:45.213Z,18.20
2018-10-09T06:16:12.746Z,17.15
2018-10-09T06:18:40.264Z,16.80
2018-10-09T06:21:07.693Z,17.70
2018-10-09T06:23:35.513Z,17.75
2018-10-09T06:26:03.292Z,19.37
2018-10-09T06:28:30.707Z,17.55
2018-10-09T06:30:57.997Z,18.32
2018-10-09T06:33:25.585Z,18.20
2018-10-09T06:35:56.558Z,20.08
2018-10-09T06:38:24.219Z,18.80
2018-10-09T06:40:51.816Z,17.75
2018-10-09T06:43:19.134Z,16.87
2018-10-09T06:45:47.616Z,20.10
2018-10-09T06:48:15.175Z,19.20
2018-10-09T06:50:42.701Z,17.77
2018-10-09T06:53:10.031Z,16.95
2018-10-09T06:55:38.052Z,21.17
2018-10-09T06:58:05.605Z,19.87
2018-10-09T07:00:32.981Z,17.75
2018-10-09T07:03:00.325Z,17.10
2018-10-09T07:05:27.678Z,19.98
2018-10-09T07:07:55.251Z,19.77
2018-10-09T07:10:22.868Z,19.50
2018-10-09T07:12:50.634Z,20.10
2018-10-09T07:15:17.971Z,18.27
2018-10-09T07:17:45.588Z,19.42
2018-10-09T07:20:12.943Z,18.92
2018-10-09T07:22:40.261Z,21.07
2018-10-09T07:25:07.835Z,20.48
2018-10-09T07:27:35.334Z,18.45
2018-10-09T07:30:02.688Z,20.60
2018-10-09T07:32:30.212Z,23.65
2018-10-09T07:34:57.642Z,17.57
2018-10-09T07:37:24.978Z,17.67
2018-10-09T07:39:52.328Z,18.07
2018-10-09T07:42:20.093Z,20.32
2018-10-09T07:44:47.667Z,17.57
2018-10-09T07:47:15.503Z,22.43
2018-10-09T07:49:42.854Z,18.73
2018-10-09T07:52:10.143Z,18.67
2018-10-09T07:54:37.720Z,17.20
2018-10-09T07:57:05.025Z,20.03
2018-10-09T07:59:32.329Z,20.17
2018-10-09T08:01:59.687Z,20.10
2018-10-09T08:04:27.256Z,18.30
2018-10-09T08:06:54.770Z,19.50
2018-10-09T08:09:22.219Z,18.80
2018-10-09T08:11:49.645Z,20.67
2018-10-09T08:14:17.009Z,21.03
2018-10-09T08:16:44.977Z,18.53
2018-10-09T08:19:13.099Z,20.13
2018-10-09T08:21:40.812Z,21.30
2018-10-09T08:24:08.428Z,20.70
2018-10-09T08:26:35.794Z,19.07
2018-10-09T08:29:03.151Z,19.40
2018-10-09T08:31:30.771Z,19.43
2018-10-09T08:33:58.453Z,20.77
2018-10-09T08:36:25.780Z,20.60
2018-10-09T08:38:53.577Z,20.00
2018-10-09T08:41:21.020Z,20.63
2018-10-09T08:43:48.299Z,21.40
2018-10-09T08:46:15.673Z,22.70
2018-10-09T08:48:43.331Z,20.97
2018-10-09T08:51:10.691Z,21.07
2018-10-09T08:53:38.363Z,21.67
2018-10-09T08:56:05.981Z,21.47
2018-10-09T08:58:33.358Z,23.17
2018-10-09T09:01:00.666Z,20.37
2018-10-09T09:03:28.354Z,20.13
2018-10-09T09:05:55.682Z,20.47
2018-10-09T09:08:23.019Z,21.37
2018-10-09T09:10:50.642Z,20.80
2018-10-09T09:13:18.315Z,22.43
2018-10-09T09:15:45.644Z,20.67
2018-10-09T09:18:13.089Z,21.10
2018-10-09T09:20:40.466Z,21.30
2018-10-09T09:23:14.713Z,21.40
2018-10-09T09:25:42.023Z,22.13
2018-10-09T09:28:09.635Z,21.93
2018-10-09T09:30:37.079Z,21.93
2018-10-09T09:33:04.757Z,23.20
2018-10-09T09:35:32.121Z,23.03
2018-10-09T09:37:59.489Z,20.97
2018-10-09T09:40:26.840Z,21.10
2018-10-09T09:42:54.185Z,21.23
2018-10-09T09:45:21.832Z,20.33
2018-10-09T09:47:49.246Z,19.63
2018-10-09T09:50:16.607Z,20.50
2018-10-09T09:52:44.125Z,20.90
2018-10-09T09:55:11.424Z,20.60
2018-10-09T09:57:38.775Z,20.97
2018-10-09T10:00:06.159Z,21.23
2018-10-09T10:02:33.762Z,20.77
2018-10-09T10:05:01.096Z,21.00
2018-10-09T10:07:28.373Z,19.40
2018-10-09T10:09:57.327Z,19.43
2018-10-09T10:12:24.967Z,20.53
2018-10-09T10:14:52.947Z,20.00
2018-10-09T10:17:20.418Z,19.20
2018-10-09T10:19:47.835Z,18.57
2018-10-09T10:22:15.148Z,15.87
2018-10-09T10:24:42.514Z,16.77
2018-10-09T10:27:09.916Z,16.33
2018-10-09T10:29:37.356Z,16.80
2018-10-09T10:32:04.615Z,16.50
2018-10-09T10:34:31.912Z,18.03
2018-10-09T10:36:59.183Z,17.57
2018-10-09T10:39:26.513Z,17.97
2018-10-09T10:41:53.838Z,15.87
2018-10-09T10:44:21.184Z,15.03
2018-10-09T10:46:48.509Z,13.83
2018-10-09T10:49:15.849Z,13.87
2018-10-09T10:51:43.917Z,13.20
2018-10-09T10:54:11.290Z,13.13
2018-10-09T10:56:38.622Z,12.50
2018-10-09T10:59:06.217Z,15.00
2018-10-09T11:01:33.627Z,13.03
2018-10-09T11:04:01.027Z,17.57
2018-10-09T11:06:28.320Z,13.07
2018-10-09T11:08:55.629Z,13.57
2018-10-09T11:11:22.962Z,13.07
2018-10-09T11:13:50.308Z,13.23
2018-10-09T11:16:18.279Z,13.77
2018-10-09T11:18:45.628Z,12.40
2018-10-09T11:21:13.039Z,13.27
2018-10-09T11:23:40.354Z,12.43
2018-10-09T11:26:07.705Z,12.30
2018-10-09T11:28:35.048Z,12.93
2018-10-09T11:31:02.399Z,11.90
2018-10-09T11:33:29.913Z,14.57
2018-10-09T11:35:57.489Z,11.57
2018-10-09T11:38:24.763Z,13.63
2018-10-09T11:40:52.120Z,13.03
2018-10-09T11:43:19.451Z,13.07
2018-10-09T11:45:46.739Z,13.93
2018-10-09T11:48:14.049Z,13.07
2018-10-09T11:50:41.423Z,14.60
2018-10-09T11:53:08.736Z,19.37
2018-10-09T11:55:36.055Z,14.70
2018-10-09T11:58:03.489Z,12.57
2018-10-09T12:00:33.005Z,14.07
2018-10-09T12:03:00.585Z,14.03
2018-10-09T12:05:27.925Z,12.90
2018-10-09T12:07:55.267Z,12.30
2018-10-09T12:10:22.635Z,13.57
2018-10-09T12:12:49.995Z,15.00
2018-10-09T12:15:17.327Z,14.13
2018-10-09T12:17:44.880Z,13.73
2018-10-09T12:20:12.228Z,17.37
2018-10-09T12:22:39.609Z,13.00
2018-10-09T12:25:06.957Z,13.27
2018-10-09T12:27:34.255Z,12.27
2018-10-09T12:30:01.581Z,14.70
2018-10-09T12:32:28.951Z,13.07
2018-10-09T12:34:56.289Z,12.87
2018-10-09T12:37:23.649Z,14.53
2018-10-09T12:39:51.038Z,13.93
2018-10-09T12:42:18.455Z,14.70
2018-10-09T12:44:45.771Z,14.20
2018-10-09T12:47:13.160Z,13.00
2018-10-09T12:49:40.455Z,14.10
2018-10-09T12:52:07.793Z,12.50
2018-10-09T12:54:35.126Z,12.77
2018-10-09T12:57:02.452Z,11.73
2018-10-09T12:59:29.779Z,12.70
2018-10-09T13:01:57.124Z,14.67
2018-10-09T13:04:24.460Z,17.03
2018-10-09T13:06:51.836Z,14.83
2018-10-09T13:09:19.247Z,12.33
2018-10-09T13:11:46.675Z,15.37
2018-10-09T13:14:14.024Z,12.97
2018-10-09T13:16:41.340Z,13.40
2018-10-09T13:19:08.633Z,12.90
2018-10-09T13:21:36.270Z,13.13
2018-10-09T13:24:03.349Z,13.20
2018-10-09T13:26:30.737Z,14.60
2018-10-09T13:28:58.019Z,13.77
2018-10-09T13:31:25.388Z,15.40
2018-10-09T13:33:52.731Z,13.97
2018-10-09T13:36:20.135Z,13.90
2018-10-09T13:38:47.476Z,13.33
2018-10-09T13:41:15.119Z,13.10
2018-10-09T13:43:42.374Z,15.23
2018-10-09T13:46:10.560Z,13.77
2018-10-09T13:48:37.906Z,12.93
2018-10-09T13:51:05.224Z,14.47
2018-10-09T13:53:32.635Z,14.57
2018-10-09T13:56:00.052Z,14.87
2018-10-09T13:58:27.463Z,12.57
2018-10-09T14:00:54.862Z,12.23
2018-10-09T14:03:22.247Z,13.43
2018-10-09T14:05:49.718Z,12.97
2018-10-09T14:08:17.044Z,13.30
2018-10-09T14:10:44.381Z,16.73
2018-10-09T14:13:11.748Z,12.10
2018-10-09T14:15:39.114Z,13.73
2018-10-09T14:18:06.552Z,14.63
2018-10-09T14:20:34.120Z,15.77
2018-10-09T14:23:01.776Z,16.60
2018-10-09T14:25:29.083Z,15.30
2018-10-09T14:27:56.412Z,14.53
2018-10-09T14:30:23.830Z,14.00
2018-10-09T14:32:51.259Z,17.13
2018-10-09T14:35:18.608Z,14.33
2018-10-09T14:37:46.213Z,14.37
2018-10-09T14:40:13.657Z,14.33
2018-10-09T14:42:41.030Z,13.53
2018-10-09T14:45:08.467Z,14.13
2018-10-09T14:47:35.910Z,13.57
2018-10-09T14:50:03.433Z,14.87
2018-10-09T14:52:30.816Z,13.77
2018-10-09T14:54:58.181Z,13.87
2018-10-09T14:57:25.524Z,14.93
2018-10-09T14:59:53.251Z,13.60
2018-10-09T15:02:20.604Z,14.10
2018-10-09T15:04:47.997Z,14.97
2018-10-09T15:07:15.412Z,14.40
2018-10-09T15:09:42.878Z,13.53
2018-10-09T15:12:10.093Z,13.37
2018-10-09T15:14:37.559Z,14.00
2018-10-09T15:17:05.028Z,13.73
2018-10-09T15:19:32.379Z,14.83
2018-10-09T15:21:59.819Z,13.20
2018-10-09T15:24:27.277Z,14.10
2018-10-09T15:26:54.785Z,13.60
2018-10-09T15:29:22.133Z,14.30
2018-10-09T15:31:50.142Z,14.17
2018-10-09T15:34:17.506Z,14.50
2018-10-09T15:36:44.897Z,14.40
2018-10-09T15:39:13.093Z,14.20
2018-10-09T15:41:40.688Z,15.10
2018-10-09T15:44:07.971Z,14.50
2018-10-09T15:46:35.423Z,20.73
2018-10-09T15:49:02.714Z,15.47
2018-10-09T15:51:30.301Z,14.23
2018-10-09T15:53:57.602Z,17.47
2018-10-09T15:56:24.962Z,15.13
2018-10-09T15:58:52.304Z,16.33
2018-10-09T16:01:20.032Z,15.80
2018-10-09T16:03:47.566Z,16.57
2018-10-09T16:06:14.928Z,15.73
2018-10-09T16:08:42.362Z,20.33
2018-10-09T16:11:09.721Z,14.80
2018-10-09T16:13:37.241Z,18.80
2018-10-09T16:16:04.635Z,18.60
2018-10-09T16:18:32.013Z,16.60
2018-10-09T16:20:59.410Z,14.73
2018-10-09T16:23:26.712Z,16.40
2018-10-09T16:25:54.190Z,15.40
2018-10-09T16:28:21.508Z,17.10
2018-10-09T16:30:48.876Z,16.70
2018-10-09T16:33:16.174Z,16.70
2018-10-09T16:35:43.606Z,16.67
2018-10-09T16:38:10.995Z,16.55
2018-10-09T16:40:38.405Z,16.70
2018-10-09T16:43:05.793Z,16.90
2018-10-09T16:45:33.303Z,17.62
2018-10-09T16:48:01.065Z,17.67
2018-10-09T16:50:29.172Z,16.93
2018-10-09T16:52:56.881Z,16.30
2018-10-09T16:55:25.095Z,15.38
2018-10-09T16:57:52.483Z,16.82
2018-10-09T17:00:20.439Z,19.98
2018-10-09T17:02:47.782Z,17.87
2018-10-09T17:05:15.404Z,17.35
2018-10-09T17:07:42.784Z,21.27
2018-10-09T17:10:10.129Z,19.95
2018-10-09T17:12:37.495Z,18.67
2018-10-09T17:15:05.308Z,18.92
2018-10-09T17:17:32.884Z,20.17
2018-10-09T17:20:00.220Z,23.60
2018-10-09T17:22:27.736Z,23.07
2018-10-09T17:24:56.000Z,22.05
2018-10-09T17:27:23.367Z,21.07
2018-10-09T17:29:51.280Z,23.22
2018-10-09T17:32:18.681Z,23.47
2018-10-09T17:34:46.288Z,23.02
2018-10-09T17:37:13.657Z,20.92
2018-10-09T17:39:41.046Z,22.02
2018-10-09T17:42:08.481Z,21.90
2018-10-09T17:44:35.759Z,22.82
2018-10-09T17:47:08.034Z,22.75
2018-10-09T17:49:36.019Z,22.27
2018-10-09T17:52:03.487Z,22.15
2018-10-09T17:54:30.893Z,25.85
2018-10-09T17:56:58.526Z,21.82
2018-10-09T17:59:25.934Z,25.05
2018-10-09T18:01:53.378Z,24.05
2018-10-09T18:04:20.717Z,21.60
2018-10-09T18:06:48.345Z,20.05
2018-10-09T18:09:15.856Z,23.52
2018-10-09T18:11:43.187Z,21.27
2018-10-09T18:14:11.386Z,21.90
2018-10-09T18:16:38.837Z,22.87
2018-10-09T18:19:06.592Z,26.65
2018-10-09T18:21:34.888Z,24.55
2018-10-09T18:24:02.446Z,23.35
2018-10-09T18:26:29.906Z,22.65
2018-10-09T18:28:57.308Z,22.20
2018-10-09T18:31:25.040Z,21.35
2018-10-09T18:33:52.362Z,21.60
2018-10-09T18:36:19.833Z,20.68
2018-10-09T18:38:47.304Z,21.12
2018-10-09T18:41:14.858Z,22.17
2018-10-09T18:43:42.214Z,21.90
2018-10-09T18:46:09.520Z,21.73
2018-10-09T18:48:36.928Z,19.98
2018-10-09T18:51:04.336Z,24.23
2018-10-09T18:53:31.712Z,22.62
2018-10-09T18:55:59.257Z,21.07
2018-10-09T18:58:27.058Z,20.80
2018-10-09T19:00:54.594Z,22.65
2018-10-09T19:03:22.076Z,20.88
2018-10-09T19:05:49.557Z,23.12
2018-10-09T19:08:17.169Z,23.90
2018-10-09T19:10:44.777Z,23.80
2018-10-09T19:13:12.378Z,25.57
2018-10-09T19:15:40.023Z,25.00
2018-10-09T19:18:07.595Z,23.07
2018-10-09T19:20:35.200Z,23.02
2018-10-09T19:23:02.739Z,23.30
2018-10-09T19:25:31.067Z,24.27
2018-10-09T19:27:58.571Z,25.72
2018-10-09T19:30:26.041Z,23.77
2018-10-09T19:32:53.420Z,25.55
2018-10-09T19:35:20.861Z,22.48
2018-10-09T19:37:48.215Z,24.37
2018-10-09T19:40:15.574Z,28.62
2018-10-09T19:42:42.963Z,28.40
2018-10-09T19:45:10.301Z,30.97
2018-10-09T19:47:38.153Z,23.67
2018-10-09T19:50:06.066Z,27.75
2018-10-09T19:52:33.500Z,26.85
2018-10-09T19:55:00.884Z,26.73
2018-10-09T19:57:28.267Z,26.23
2018-10-09T19:59:55.903Z,26.87
2018-10-09T20:02:23.251Z,24.77
2018-10-09T20:04:50.653Z,26.00
2018-10-09T20:07:18.050Z,27.30
2018-10-09T20:09:45.334Z,26.45
2018-10-09T20:12:13.077Z,25.40
2018-10-09T20:14:40.471Z,28.17
2018-10-09T20:17:07.867Z,24.60
2018-10-09T20:19:35.289Z,26.60
2018-10-09T20:22:02.719Z,24.95
2018-10-09T20:24:30.100Z,25.95
2018-10-09T20:26:57.436Z,30.90
2018-10-09T20:29:24.827Z,29.57
2018-10-09T20:31:52.157Z,28.20
2018-10-09T20:34:19.505Z,28.38
2018-10-09T20:36:46.971Z,29.85
2018-10-09T20:39:14.411Z,31.50
2018-10-09T20:41:41.850Z,33.67
2018-10-09T20:44:09.163Z,33.58
2018-10-09T20:46:36.530Z,35.08
2018-10-09T20:49:03.862Z,36.00
2018-10-09T20:51:31.174Z,29.60
2018-10-09T20:53:58.556Z,30.90
2018-10-09T20:56:25.934Z,36.77
2018-10-09T20:58:53.308Z,30.45
2018-10-09T21:01:20.698Z,30.77
2018-10-09T21:03:48.065Z,32.00
2018-10-09T21:06:15.518Z,34.35
2018-10-09T21:08:42.913Z,31.23
2018-10-09T21:11:10.350Z,34.55
2018-10-09T21:13:37.718Z,34.35
2018-10-09T21:16:05.132Z,29.65
2018-10-09T21:18:33.054Z,37.33
2018-10-09T21:21:00.367Z,35.95
2018-10-09T21:23:27.646Z,33.48
2018-10-09T21:25:55.337Z,31.00
2018-10-09T21:28:22.893Z,39.00
2018-10-09T21:30:50.225Z,36.10
2018-10-09T21:33:17.821Z,34.75
2018-10-09T21:35:45.290Z,33.48
2018-10-09T21:38:12.699Z,30.00
2018-10-09T21:40:40.087Z,36.23
2018-10-09T21:43:07.465Z,33.85
2018-10-09T21:45:34.769Z,35.63
2018-10-09T21:48:03.507Z,32.42
2018-10-09T21:50:30.920Z,35.13
2018-10-09T21:52:58.722Z,33.28
2018-10-09T21:55:26.533Z,35.58
2018-10-09T21:57:54.173Z,30.97
2018-10-09T22:00:21.539Z,35.63
2018-10-09T22:02:48.881Z,27.27
2018-10-09T22:05:16.320Z,31.12
2018-10-09T22:07:43.626Z,35.17
2018-10-09T22:10:10.952Z,33.90
2018-10-09T22:12:38.311Z,30.15
2018-10-09T22:15:06.077Z,29.15
2018-10-09T22:17:33.388Z,29.72
2018-10-09T22:20:00.691Z,34.18
2018-10-09T22:22:28.011Z,28.77
2018-10-09T22:24:55.470Z,32.93
2018-10-09T22:27:23.115Z,36.70
2018-10-09T22:29:50.555Z,32.03
2018-10-09T22:32:17.886Z,33.88
2018-10-09T22:34:45.319Z,31.68
2018-10-09T22:37:12.823Z,36.35
2018-10-09T22:39:40.207Z,35.28
2018-10-09T22:42:07.480Z,36.93
2018-10-09T22:44:35.716Z,34.35
2018-10-09T22:47:03.008Z,32.75
2018-10-09T22:49:30.405Z,30.95
2018-10-09T22:51:57.732Z,35.55
2018-10-09T22:54:25.081Z,35.65
2018-10-09T22:56:52.418Z,33.05
2018-10-09T22:59:19.927Z,40.67
2018-10-09T23:01:47.301Z,36.23
2018-10-09T23:04:14.631Z,32.38
2018-10-09T23:06:41.948Z,32.33
2018-10-09T23:09:10.850Z,29.37
2018-10-09T23:11:38.127Z,29.82
2018-10-09T23:14:05.463Z,30.17
2018-10-09T23:16:32.797Z,33.85
2018-10-09T23:19:00.096Z,29.70
2018-10-09T23:21:27.445Z,29.65
2018-10-09T23:23:54.765Z,28.83
2018-10-09T23:26:22.051Z,32.33
2018-10-09T23:28:49.405Z,34.27
2018-10-09T23:31:16.741Z,38.38
2018-10-09T23:33:44.063Z,38.05
2018-10-09T23:36:11.453Z,35.33
2018-10-09T23:38:38.787Z,35.88
2018-10-09T23:41:06.457Z,31.68
2018-10-09T23:43:34.049Z,34.03
2018-10-09T23:46:01.351Z,38.90
2018-10-09T23:48:28.638Z,28.80
2018-10-09T23:50:55.945Z,44.23
2018-10-09T23:53:23.302Z,40.67
2018-10-09T23:55:50.578Z,38.02
2018-10-09T23:58:17.924Z,39.40
